Time;durP1;ratioP1;P1;durP2;ratioP2;P2;SDS_P1;SDS_P2;PMS_P1;PMS_P2;Temp;Humidity;BMP_temperature;BMP_pressure;BME280_temperature;BME280_humidity;BME280_pressure;Samples;Min_cycle;Max_cycle;Signal;HPM_P1;HPM_P2
2021/05/23 06:00:48;;;;;;;3.22;2.12;;;;;;;13.22;77.81;99830.00;1706523;80;26838;-60
2021/05/23 06:03:14;;;;;;;6.92;2.22;;;;;;;13.54;77.65;99826.20;1736290;81;27308;-59
2021/05/23 06:05:40;;;;;;;4.62;2.30;;;;;;;13.81;77.14;99829.58;1734959;81;25859;-59
2021/05/23 06:08:07;;;;;;;6.75;2.87;;;;;;;13.93;72.77;99835.56;1730429;81;26771;-59
2021/05/23 06:10:34;;;;;;;4.55;2.55;;;;;;;14.10;74.91;99833.73;1735415;81;25731;-59
2021/05/23 06:13:01;;;;;;;3.60;2.25;;;;;;;14.26;73.72;99835.93;1701581;81;26671;-59
2021/05/23 06:15:27;;;;;;;6.08;2.12;;;;;;;14.45;73.89;99838.59;1719672;81;27314;-59
2021/05/23 06:17:54;;;;;;;3.45;1.77;;;;;;;14.64;74.25;99835.25;1751076;80;25726;-59
2021/05/23 06:20:20;;;;;;;6.65;2.15;;;;;;;14.78;70.52;99843.02;1742875;81;25681;-60
2021/05/23 06:22:47;;;;;;;8.15;2.30;;;;;;;14.90;69.75;99833.44;1732467;81;25865;-58
2021/05/23 06:25:14;;;;;;;4.53;1.92;;;;;;;15.05;71.37;99842.20;1734519;81;25923;-59
2021/05/23 06:27:41;;;;;;;5.17;1.60;;;;;;;15.18;70.11;99839.39;1719255;82;27382;-60
2021/05/23 06:30:09;;;;;;;2.50;1.57;;;;;;;15.27;68.12;99846.80;1730981;81;25856;-60
2021/05/23 06:32:36;;;;;;;3.33;1.67;;;;;;;15.34;68.04;99838.83;1709705;81;25815;-60
2021/05/23 06:35:04;;;;;;;6.53;1.85;;;;;;;15.44;64.00;99844.30;1718599;81;25780;-60
2021/05/23 06:37:30;;;;;;;3.27;1.70;;;;;;;15.56;63.86;99856.49;1732066;80;25684;-60
2021/05/23 06:39:57;;;;;;;6.85;1.62;;;;;;;15.61;64.48;99847.23;1725775;81;29418;-59
2021/05/23 06:42:24;;;;;;;3.25;1.35;;;;;;;15.73;65.03;99835.43;1717529;81;25810;-59
2021/05/23 06:44:51;;;;;;;4.75;1.42;;;;;;;15.86;65.04;99843.17;1731398;81;25789;-61
2021/05/23 06:47:17;;;;;;;2.85;1.55;;;;;;;16.06;64.92;99832.31;1747724;80;26106;-61
2021/05/23 06:49:44;;;;;;;3.42;1.80;;;;;;;16.21;64.86;99842.38;1735904;79;25821;-60
2021/05/23 06:52:10;;;;;;;2.50;1.55;;;;;;;16.29;62.44;99843.89;1745482;80;27375;-60
2021/05/23 06:54:37;;;;;;;3.47;1.60;;;;;;;16.42;63.57;99842.60;1744288;80;26085;-61
2021/05/23 06:57:05;;;;;;;2.10;1.42;;;;;;;16.53;61.40;99834.61;1742991;80;25818;-60
2021/05/23 06:59:32;;;;;;;3.27;1.35;;;;;;;16.59;60.91;99850.34;1744476;80;25748;-60
2021/05/23 07:01:58;;;;;;;3.17;1.20;;;;;;;16.76;60.95;99842.88;1736877;80;25938;-61
2021/05/23 07:04:25;;;;;;;3.00;1.10;;;;;;;17.01;58.68;99850.19;1728641;80;27231;-59
2021/05/23 07:06:51;;;;;;;2.55;1.35;;;;;;;17.11;60.71;99852.88;1717098;81;25899;-60
2021/05/23 07:09:18;;;;;;;1.57;1.05;;;;;;;17.01;56.47;99865.77;1724286;81;25764;-60
2021/05/23 07:11:46;;;;;;;1.97;1.20;;;;;;;16.88;58.66;99863.80;1756720;80;25828;-59
2021/05/23 07:14:13;;;;;;;3.02;1.32;;;;;;;16.85;58.31;99874.86;1696152;83;25685;-59
2021/05/23 07:16:39;;;;;;;3.25;1.40;;;;;;;16.84;57.81;99854.70;1679056;83;27503;-60
2021/05/23 07:19:06;;;;;;;2.37;1.00;;;;;;;16.88;58.96;99864.58;1706259;82;25639;-59
2021/05/23 07:21:33;;;;;;;3.58;1.40;;;;;;;17.03;58.57;99868.95;1667606;83;25918;-58
2021/05/23 07:23:59;;;;;;;3.37;1.55;;;;;;;17.29;58.38;99864.91;1697983;83;26350;-58
2021/05/23 07:26:26;;;;;;;4.17;1.82;;;;;;;17.65;58.15;99869.59;1707449;82;25816;-62
2021/05/23 07:28:53;;;;;;;4.47;1.07;;;;;;;17.72;58.41;99861.52;1697060;82;29488;-61
2021/05/23 07:31:21;;;;;;;3.52;1.35;;;;;;;17.90;59.50;99871.95;1675314;83;25825;-62
2021/05/23 07:33:48;;;;;;;2.98;0.95;;;;;;;18.14;57.80;99879.52;1689918;83;26390;-62
2021/05/23 07:36:15;;;;;;;6.03;1.40;;;;;;;18.16;57.12;99890.88;1737727;81;25842;-62
2021/05/23 07:38:41;;;;;;;4.10;1.20;;;;;;;18.20;56.09;99884.30;1740861;81;25823;-62
2021/05/23 07:41:08;;;;;;;2.70;1.40;;;;;;;18.17;55.92;99889.73;1718374;81;28232;-62
2021/05/23 07:43:34;;;;;;;3.90;1.12;;;;;;;18.37;57.18;99887.63;1720749;81;27197;-62
2021/05/23 07:46:01;;;;;;;2.85;1.10;;;;;;;18.94;58.18;99888.34;1707598;81;25935;-62
2021/05/23 07:48:27;;;;;;;3.42;1.60;;;;;;;19.45;56.22;99887.45;1730681;81;25708;-63
2021/05/23 07:50:54;;;;;;;3.37;1.47;;;;;;;19.60;55.62;99885.81;1716214;81;25716;-63
2021/05/23 07:53:20;;;;;;;2.90;0.90;;;;;;;19.93;55.11;99886.84;1708401;81;27278;-62
2021/05/23 07:55:47;;;;;;;2.80;0.88;;;;;;;20.12;52.29;99887.16;1725896;81;25858;-62
2021/05/23 07:58:13;;;;;;;1.82;0.95;;;;;;;20.07;51.54;99894.97;1735979;81;25841;-62
2021/05/23 08:00:40;;;;;;;3.70;0.82;;;;;;;19.99;51.13;99902.39;1722120;81;25860;-62
2021/05/23 08:03:06;;;;;;;4.53;1.07;;;;;;;19.83;49.53;99907.37;1740239;81;25853;-62
2021/05/23 08:05:33;;;;;;;1.90;0.90;;;;;;;19.52;49.28;99901.22;1735533;81;27130;-62
2021/05/23 08:08:00;;;;;;;1.85;0.93;;;;;;;19.36;49.93;99898.15;1746287;81;25727;-62
2021/05/23 08:10:27;;;;;;;3.58;1.12;;;;;;;19.20;50.63;99905.82;1733960;81;26544;-62
2021/05/23 08:12:54;;;;;;;2.62;1.05;;;;;;;19.48;51.40;99905.88;1746267;81;25764;-63
2021/05/23 08:15:20;;;;;;;2.30;1.07;;;;;;;19.66;49.36;99910.15;1718129;81;25714;-60
2021/05/23 08:17:47;;;;;;;1.07;0.80;;;;;;;19.60;50.43;99906.98;1699180;81;27309;-62
2021/05/23 08:20:17;;;;;;;3.27;0.82;;;;;;;19.60;50.09;99909.13;1685763;82;25728;-63
2021/05/23 08:22:44;;;;;;;4.10;1.10;;;;;;;19.58;50.11;99915.58;1694594;83;26027;-62
2021/05/23 08:25:12;;;;;;;2.30;1.02;;;;;;;19.45;47.48;99910.17;1700357;82;25793;-62
2021/05/23 08:27:40;;;;;;;2.17;0.80;;;;;;;19.29;49.65;99913.73;1686457;83;25868;-62
2021/05/23 08:30:10;;;;;;;2.42;0.93;;;;;;;19.29;49.65;99913.73;1706810;83;28160;-63
2021/05/23 08:32:38;;;;;;;2.72;0.80;;;;;;;19.26;49.01;99928.19;1697751;82;25723;-63
2021/05/23 08:35:08;;;;;;;3.05;1.07;;;;;;;19.23;48.19;99921.52;1742883;80;25822;-63
2021/05/23 08:37:34;;;;;;;3.02;1.62;;;;;;;19.28;49.60;99923.14;1732819;81;25841;-62
2021/05/23 08:40:01;;;;;;;2.47;0.90;;;;;;;19.72;49.92;99934.70;1734237;81;25312;-62
2021/05/23 08:42:27;;;;;;;3.67;1.17;;;;;;;19.97;48.81;99923.92;1730596;81;27368;-63
2021/05/23 08:44:54;;;;;;;7.25;0.88;;;;;;;20.16;48.83;99924.27;1742449;81;25798;-63
2021/05/23 08:47:21;;;;;;;2.77;0.98;;;;;;;20.33;48.54;99924.95;1740017;81;25779;-62
2021/05/23 08:49:50;;;;;;;3.90;0.82;;;;;;;20.67;45.34;99924.74;1725331;81;25764;-63
2021/05/23 08:52:20;;;;;;;2.75;0.90;;;;;;;21.29;47.70;99918.04;1740631;81;25733;-61
2021/05/23 08:54:48;;;;;;;3.65;1.20;;;;;;;21.56;46.91;99914.35;1741718;81;27327;-63
2021/05/23 08:57:23;;;;;;;1.73;1.07;;;;;;;21.69;45.29;99922.98;1737174;81;25816;-63
2021/05/23 08:59:51;;;;;;;4.12;1.07;;;;;;;21.63;43.61;99925.36;1718019;81;25739;-62
2021/05/23 09:02:18;;;;;;;1.92;0.78;;;;;;;21.73;44.95;99943.06;1728385;81;26332;-61
2021/05/23 09:04:50;;;;;;;3.90;0.90;;;;;;;21.95;44.57;99934.97;1719321;81;25769;-62
2021/05/23 09:07:17;;;;;;;3.62;0.90;;;;;;;22.16;41.45;99929.23;1740433;80;27354;-61
2021/05/23 09:09:47;;;;;;;4.50;2.17;;;;;;;22.30;43.87;99949.88;1694087;83;25972;-61
2021/05/23 09:12:18;;;;;;;3.50;1.40;;;;;;;22.34;43.15;99945.77;1702439;82;25927;-61
2021/05/23 09:14:48;;;;;;;2.25;0.93;;;;;;;22.73;43.20;99948.95;1705411;81;25940;-62
2021/05/23 09:17:26;;;;;;;1.55;0.72;;;;;;;23.17;43.61;99947.58;1670038;83;25456;-62
2021/05/23 09:19:55;;;;;;;1.22;0.82;;;;;;;23.22;39.95;99955.43;1688971;83;26414;-61
2021/05/23 09:22:27;;;;;;;2.37;0.68;;;;;;;23.02;40.03;99963.42;1709944;82;25927;-61
2021/05/23 09:24:59;;;;;;;2.47;0.78;;;;;;;23.04;38.39;99946.47;1667057;84;25697;-59
2021/05/23 09:27:30;;;;;;;2.85;1.07;;;;;;;22.86;40.40;99947.92;1688107;82;26254;-61
2021/05/23 09:30:11;;;;;;;1.45;0.60;;;;;;;22.72;40.65;99952.31;1666123;84;25652;-61
2021/05/23 09:32:44;;;;;;;3.75;0.72;;;;;;;22.56;38.71;99955.53;1678602;83;27410;-58
2021/05/23 09:35:11;;;;;;;3.58;1.00;;;;;;;22.38;40.19;99943.77;1690894;83;26422;-60
2021/05/23 09:37:39;;;;;;;1.85;0.88;;;;;;;22.54;40.68;99940.56;1683664;83;25888;-58
2021/05/23 09:40:23;;;;;;;1.33;0.63;;;;;;;22.95;37.14;99951.02;1724799;80;25724;-61
2021/05/23 09:42:54;;;;;;;1.85;0.85;;;;;;;22.95;37.14;99951.02;1737235;80;25735;-59
2021/05/23 09:45:24;;;;;;;2.00;0.70;;;;;;;22.74;37.61;99936.75;1718948;81;27414;-58
2021/05/23 09:47:55;;;;;;;3.87;0.88;;;;;;;22.81;38.59;99940.08;1734587;81;25794;-58
2021/05/23 09:50:38;;;;;;;1.70;0.90;;;;;;;22.88;39.08;99940.03;1747484;80;25712;-58
2021/05/23 09:53:18;;;;;;;1.45;0.80;;;;;;;22.86;39.22;99940.43;1727527;81;25716;-60
2021/05/23 09:55:58;;;;;;;2.83;1.05;;;;;;;22.95;38.71;99934.47;1718443;81;25511;-61
2021/05/23 09:58:39;;;;;;;2.22;0.72;;;;;;;23.26;39.84;99938.28;1739585;81;27323;-58
2021/05/23 10:01:10;;;;;;;1.60;0.75;;;;;;;23.00;38.69;99931.90;1737054;81;25862;-59
2021/05/23 10:03:41;;;;;;;1.60;0.98;;;;;;;22.86;38.15;99951.46;1694078;83;25684;-58
2021/05/23 10:06:09;;;;;;;1.02;0.70;;;;;;;22.77;39.92;99944.23;1673163;84;26020;-58
2021/05/23 10:08:35;;;;;;;2.17;1.05;;;;;;;22.84;39.99;99945.56;1638553;84;26366;-65
2021/05/23 10:11:02;;;;;;;1.82;0.80;;;;;;;22.80;39.60;99937.92;1736032;81;27974;-64
2021/05/23 10:13:30;;;;;;;3.22;0.90;;;;;;;22.62;40.23;99950.98;1732712;81;25875;-63
2021/05/23 10:15:56;;;;;;;4.50;1.17;;;;;;;22.29;39.60;99942.81;1730995;81;25755;-64
2021/05/23 10:18:28;;;;;;;1.17;1.00;;;;;;;22.17;40.77;99950.09;1726386;81;25689;-63
2021/05/23 10:21:03;;;;;;;2.52;0.98;;;;;;;21.89;40.02;99942.64;1718376;81;25925;-64
2021/05/23 10:23:49;;;;;;;1.40;0.80;;;;;;;21.51;40.28;99948.54;1744549;81;29525;-65
2021/05/23 10:26:25;;;;;;;2.87;0.88;;;;;;;21.24;41.33;99943.95;1734338;81;25688;-64
2021/05/23 10:28:54;;;;;;;1.80;1.10;;;;;;;21.08;41.56;99945.09;1732108;81;25878;-64
2021/05/23 10:31:29;;;;;;;1.35;0.90;;;;;;;20.86;41.10;99942.87;1729191;81;25781;-65
2021/05/23 10:33:57;;;;;;;1.50;0.80;;;;;;;20.67;42.04;99928.05;1716358;81;25658;-64
2021/05/23 10:36:37;;;;;;;3.37;0.78;;;;;;;20.48;41.16;99951.91;1745006;81;27352;-64
2021/05/23 10:39:12;;;;;;;1.65;0.60;;;;;;;20.81;42.76;99948.74;1726428;81;25999;-64
2021/05/23 10:41:39;;;;;;;2.08;0.80;;;;;;;21.31;41.91;99942.58;1737688;81;25864;-64
2021/05/23 10:44:09;;;;;;;1.00;0.70;;;;;;;21.68;42.25;99938.72;1728784;81;25616;-64
2021/05/23 10:46:51;;;;;;;0.85;0.70;;;;;;;22.06;40.63;99953.45;1678360;81;25590;-64
2021/05/23 10:49:18;;;;;;;2.80;0.70;;;;;;;22.25;40.66;99943.37;1730250;81;27336;-63
2021/05/23 10:51:56;;;;;;;1.67;0.80;;;;;;;22.47;40.22;99957.13;1723570;81;26110;-65
2021/05/23 10:54:23;;;;;;;1.60;0.75;;;;;;;22.60;39.00;99958.88;1733731;80;25597;-64
2021/05/23 10:57:03;;;;;;;4.10;0.80;;;;;;;22.42;39.37;99959.69;1722397;81;27010;-65
2021/05/23 10:59:31;;;;;;;1.00;0.70;;;;;;;22.64;38.39;99957.66;1732422;81;25660;-63
2021/05/23 11:01:58;;;;;;;2.55;0.88;;;;;;;22.63;37.91;99958.86;1713785;81;27325;-64
2021/05/23 11:04:39;;;;;;;3.40;0.75;;;;;;;22.45;37.40;99969.92;1734874;80;26453;-64
2021/05/23 11:07:12;;;;;;;1.50;0.80;;;;;;;22.20;37.49;99962.48;1754871;79;25746;-63
2021/05/23 11:09:44;;;;;;;1.75;1.07;;;;;;;22.35;36.91;99981.76;1757631;80;26938;-63
2021/05/23 11:12:13;;;;;;;1.82;0.60;;;;;;;22.05;37.07;99967.81;1732795;80;26529;-65
2021/05/23 11:14:40;;;;;;;2.35;0.80;;;;;;;21.70;36.84;99978.24;1739277;80;27046;-65
2021/05/23 11:17:10;;;;;;;3.05;0.65;;;;;;;21.38;37.07;99961.06;1740035;80;25856;-63
2021/05/23 11:19:37;;;;;;;0.82;0.72;;;;;;;21.36;38.92;99960.08;1729905;81;25661;-63
2021/05/23 11:22:03;;;;;;;4.70;1.05;;;;;;;21.84;40.74;99963.09;1745532;80;26253;-64
2021/05/23 11:24:33;;;;;;;2.08;0.70;;;;;;;21.88;38.84;99966.64;1755181;80;25889;-62
2021/05/23 11:27:12;;;;;;;1.02;0.65;;;;;;;22.02;38.25;99963.09;1754726;79;27999;-63
2021/05/23 11:29:46;;;;;;;6.78;1.05;;;;;;;21.74;37.47;99949.55;1732285;81;25849;-62
2021/05/23 11:32:14;;;;;;;2.02;0.65;;;;;;;21.40;38.76;99955.39;1751559;80;25876;-63
2021/05/23 11:34:41;;;;;;;1.50;0.65;;;;;;;21.68;40.10;99957.20;1737605;81;26308;-62
2021/05/23 11:37:08;;;;;;;3.52;0.80;;;;;;;21.97;40.39;99951.88;1755381;80;25944;-63
2021/05/23 11:39:34;;;;;;;1.95;0.60;;;;;;;22.29;39.03;99954.44;1750030;80;28021;-61
2021/05/23 11:42:05;;;;;;;1.50;0.75;;;;;;;22.22;37.91;99959.91;1745525;80;25693;-62
2021/05/23 11:44:37;;;;;;;1.15;0.55;;;;;;;22.11;37.52;99961.31;1742148;81;25836;-62
2021/05/23 11:47:04;;;;;;;1.50;0.70;;;;;;;21.96;38.36;99966.84;1744352;80;25761;-62
2021/05/23 11:49:32;;;;;;;3.10;0.90;;;;;;;21.96;37.97;99966.84;1692762;83;25955;-62
2021/05/23 11:52:01;;;;;;;2.90;1.00;;;;;;;22.18;36.26;99958.54;1689314;83;27321;-62
2021/05/23 11:54:28;;;;;;;2.58;0.95;;;;;;;22.40;37.51;99965.42;1705975;81;25726;-60
2021/05/23 11:56:55;;;;;;;0.85;0.62;;;;;;;22.68;36.99;99963.95;1702482;82;26582;-60
2021/05/23 11:59:22;;;;;;;0.82;0.70;;;;;;;22.65;35.85;99976.38;1691274;83;25817;-59
2021/05/23 12:01:54;;;;;;;2.98;0.78;;;;;;;22.32;35.03;99967.39;1689957;82;25760;-61
2021/05/23 12:04:20;;;;;;;2.55;1.00;;;;;;;22.04;36.12;99965.45;1700397;82;27455;-60
2021/05/23 12:06:52;;;;;;;2.77;0.80;;;;;;;21.66;36.36;99970.55;1686495;83;25879;-60
2021/05/23 12:09:36;;;;;;;4.42;0.82;;;;;;;21.35;37.01;99961.84;1682090;84;25771;-60
2021/05/23 12:12:04;;;;;;;1.12;0.62;;;;;;;21.30;37.88;99967.16;1672979;84;25739;-59
2021/05/23 12:14:47;;;;;;;1.60;0.80;;;;;;;21.72;38.86;99967.62;1673871;84;26471;-62
2021/05/23 12:17:19;;;;;;;2.27;0.90;;;;;;;22.30;39.09;99960.12;1663007;83;27341;-61
2021/05/23 12:19:53;;;;;;;1.75;0.90;;;;;;;22.81;37.99;99971.78;1701176;83;25814;-60
2021/05/23 12:22:33;;;;;;;1.37;0.60;;;;;;;23.00;37.44;99963.61;1675095;84;26061;-59
2021/05/23 12:25:11;;;;;;;1.42;0.55;;;;;;;23.24;35.40;99984.80;1673166;84;25988;-60
2021/05/23 12:27:53;;;;;;;4.85;0.90;;;;;;;22.82;35.00;99964.48;1692610;83;25737;-60
2021/05/23 12:30:27;;;;;;;2.92;0.70;;;;;;;22.44;35.89;99961.48;1670194;84;27391;-60
2021/05/23 12:33:02;;;;;;;2.00;0.70;;;;;;;22.55;37.36;99969.70;1684826;83;25955;-60
2021/05/23 12:35:35;;;;;;;3.85;0.62;;;;;;;22.99;36.22;99960.08;1697283;82;25671;-59
2021/05/23 12:38:16;;;;;;;1.32;0.60;;;;;;;23.10;34.99;99974.64;1689684;83;25770;-59
2021/05/23 12:40:48;;;;;;;0.80;0.62;;;;;;;23.17;35.98;99971.63;1708013;82;25846;-60
2021/05/23 12:43:22;;;;;;;1.87;0.62;;;;;;;23.44;36.83;99973.24;1710334;82;28068;-61
2021/05/23 12:45:56;;;;;;;1.25;0.75;;;;;;;23.94;35.60;99979.80;1687233;83;25834;-61
2021/05/23 12:48:42;;;;;;;1.15;0.60;;;;;;;23.77;34.61;99972.40;1677371;82;25746;-63
2021/05/23 12:51:28;;;;;;;0.95;0.70;;;;;;;23.51;31.87;99989.75;1698801;83;25839;-61
2021/05/23 12:53:58;;;;;;;1.32;0.78;;;;;;;23.13;34.08;99977.95;1699479;82;25907;-60
2021/05/23 12:56:28;;;;;;;2.98;0.95;;;;;;;23.00;33.98;99982.92;1699261;82;27322;-60
2021/05/23 12:58:58;;;;;;;3.90;0.70;;;;;;;22.79;34.98;99984.58;1682646;82;26268;-61
2021/05/23 13:01:35;;;;;;;1.47;0.57;;;;;;;22.72;34.53;99985.39;1699240;82;26707;-61
2021/05/23 13:04:07;;;;;;;1.42;0.65;;;;;;;22.59;34.99;99982.87;1693173;82;27992;-61
2021/05/23 13:06:47;;;;;;;2.02;0.78;;;;;;;22.34;34.60;99989.24;1715273;82;25927;-60
2021/05/23 13:09:14;;;;;;;1.98;0.60;;;;;;;22.05;34.48;99982.96;1709638;82;27454;-61
2021/05/23 13:11:57;;;;;;;1.47;0.75;;;;;;;22.05;35.44;99983.53;1694423;83;25768;-60
2021/05/23 13:14:25;;;;;;;2.15;0.68;;;;;;;22.17;35.86;99983.92;1683325;81;25951;-60
2021/05/23 13:16:57;;;;;;;0.80;0.60;;;;;;;22.13;35.59;99981.75;1677616;84;32570;-59
2021/05/23 13:19:37;;;;;;;1.47;0.90;;;;;;;22.14;35.68;99981.18;1658819;84;25860;-60
2021/05/23 13:22:01;;;;;;;2.52;1.05;;;;;;;22.09;35.48;99990.62;1662891;84;27555;-61
2021/05/23 13:24:29;;;;;;;3.00;0.95;;;;;;;21.88;35.20;99996.13;1659222;83;25873;-58
2021/05/23 13:26:59;;;;;;;1.47;0.68;;;;;;;21.76;35.60;99993.16;1687731;83;25580;-57
2021/05/23 13:29:28;;;;;;;3.85;0.78;;;;;;;21.63;35.62;99995.53;1663748;82;26387;-57
2021/05/23 13:31:56;;;;;;;2.30;1.07;;;;;;;21.50;35.50;99999.83;1688887;82;25792;-59
2021/05/23 13:34:23;;;;;;;2.58;0.95;;;;;;;21.32;35.78;100000.55;1686136;82;27407;-58
2021/05/23 13:36:49;;;;;;;1.42;1.00;;;;;;;21.09;35.96;100002.24;1703977;82;25669;-59
2021/05/23 13:39:16;;;;;;;1.10;0.60;;;;;;;20.81;35.54;100002.33;1657107;84;26307;-59
2021/05/23 13:41:43;;;;;;;0.90;0.57;;;;;;;20.58;36.13;100002.56;1702390;82;25754;-57
2021/05/23 13:44:13;;;;;;;0.90;0.62;;;;;;;20.46;37.43;100005.64;1703449;82;25800;-58
2021/05/23 13:46:42;;;;;;;1.37;0.60;;;;;;;20.32;36.24;100015.36;1701503;81;27548;-59
2021/05/23 13:49:09;;;;;;;1.00;0.70;;;;;;;20.19;36.93;100013.30;1721296;81;25858;-59
2021/05/23 13:51:37;;;;;;;5.15;0.60;;;;;;;20.09;36.29;100013.42;1735729;81;25714;-58
2021/05/23 13:54:06;;;;;;;1.95;0.57;;;;;;;19.98;36.42;100016.09;1733565;81;25799;-57
2021/05/23 13:56:35;;;;;;;4.33;0.68;;;;;;;19.96;36.88;100013.72;1733367;81;25824;-58
2021/05/23 13:59:02;;;;;;;1.57;0.80;;;;;;;19.92;36.70;100012.91;1727995;81;28120;-58
2021/05/23 14:01:30;;;;;;;1.55;1.10;;;;;;;19.77;37.12;100013.95;1725896;80;25882;-59
2021/05/23 14:03:57;;;;;;;1.47;1.00;;;;;;;19.65;37.67;100013.62;1713382;81;25801;-57
2021/05/23 14:06:24;;;;;;;0.95;0.85;;;;;;;19.54;37.75;100014.09;1725886;81;25685;-57
2021/05/23 14:08:51;;;;;;;1.77;0.90;;;;;;;19.36;38.29;100013.91;1732558;81;26018;-56
2021/05/23 14:11:17;;;;;;;1.35;0.80;;;;;;;19.33;38.70;100013.29;1727724;81;27888;-56
2021/05/23 14:13:44;;;;;;;2.27;0.90;;;;;;;19.33;39.26;100007.21;1738994;81;25754;-56
2021/05/23 14:16:10;;;;;;;4.25;0.60;;;;;;;19.43;39.86;100025.52;1740718;81;25749;-57
2021/05/23 14:18:39;;;;;;;2.65;0.60;;;;;;;19.64;39.66;100031.83;1720861;81;26678;-57
2021/05/23 14:21:10;;;;;;;0.65;0.53;;;;;;;19.81;39.01;100031.23;1744925;81;25907;-57
2021/05/23 14:23:37;;;;;;;3.60;0.82;;;;;;;19.98;38.86;100024.91;1737287;79;27290;-58
2021/05/23 14:26:05;;;;;;;2.15;1.07;;;;;;;20.08;38.74;100031.86;1753652;80;25876;-57
2021/05/23 14:28:33;;;;;;;1.10;0.75;;;;;;;20.17;38.20;100035.64;1752839;79;25838;-58
2021/05/23 14:31:00;;;;;;;1.90;0.80;;;;;;;20.29;38.78;100030.44;1749501;80;25987;-58
2021/05/23 14:33:27;;;;;;;1.98;0.90;;;;;;;20.46;38.72;100035.27;1725544;81;25968;-57
2021/05/23 14:35:54;;;;;;;2.85;0.62;;;;;;;20.62;38.68;100032.81;1738806;81;27338;-58
2021/05/23 14:38:21;;;;;;;0.93;0.88;;;;;;;20.68;38.36;100036.22;1730317;81;25695;-57
2021/05/23 14:40:49;;;;;;;2.33;0.85;;;;;;;20.79;38.75;100039.61;1737206;81;25950;-57
2021/05/23 14:43:16;;;;;;;1.20;0.70;;;;;;;20.86;37.90;100040.45;1752646;80;25814;-57
2021/05/23 14:45:43;;;;;;;2.77;1.00;;;;;;;20.78;37.87;100045.70;1745554;80;25839;-57
2021/05/23 14:48:10;;;;;;;0.68;0.62;;;;;;;20.72;38.05;100036.23;1728941;81;27332;-57
2021/05/23 14:50:39;;;;;;;2.92;1.22;;;;;;;20.81;38.41;100044.94;1734997;81;25910;-59
2021/05/23 14:53:07;;;;;;;7.72;3.37;;;;;;;20.82;38.12;100046.52;1715791;81;25867;-58
2021/05/23 14:55:33;;;;;;;17.70;6.37;;;;;;;20.77;38.17;100040.59;1733523;81;25831;-59
2021/05/23 14:58:00;;;;;;;3.45;1.22;;;;;;;20.78;38.55;100040.80;1705707;81;25943;-57
2021/05/23 15:00:26;;;;;;;1.25;0.80;;;;;;;20.64;37.65;100051.91;1716144;80;27981;-58
2021/05/23 15:02:53;;;;;;;3.80;1.40;;;;;;;20.41;37.65;100050.73;1729742;81;25338;-58
2021/05/23 15:05:22;;;;;;;2.30;0.88;;;;;;;20.27;38.06;100046.52;1740828;81;25695;-57
2021/05/23 15:07:50;;;;;;;2.12;1.30;;;;;;;20.22;38.29;100040.78;1700582;82;25891;-59
2021/05/23 15:10:18;;;;;;;1.55;1.05;;;;;;;20.26;39.04;100041.63;1744260;81;25762;-59
2021/05/23 15:12:44;;;;;;;2.22;0.85;;;;;;;20.34;39.19;100045.97;1700391;81;27391;-58
2021/05/23 15:15:12;;;;;;;2.40;1.00;;;;;;;20.42;39.13;100050.95;1725550;81;27175;-58
2021/05/23 15:17:40;;;;;;;2.02;0.70;;;;;;;20.46;38.99;100042.13;1704633;82;25668;-58
2021/05/23 15:20:08;;;;;;;4.08;1.22;;;;;;;20.48;38.81;100054.92;1733038;81;26252;-59
2021/05/23 15:22:34;;;;;;;4.00;1.32;;;;;;;20.41;38.58;100053.48;1700856;81;25875;-58
2021/05/23 15:25:01;;;;;;;2.27;1.10;;;;;;;20.34;38.66;100056.95;1733675;81;27309;-57
2021/05/23 15:30:29;;;;;;;2.42;1.00;;;;;;;20.11;38.87;100050.32;1740198;81;25946;-57
2021/05/23 15:32:59;;;;;;;3.22;1.00;;;;;;;19.93;38.89;100052.12;1730484;80;26597;-58
2021/05/23 15:35:27;;;;;;;1.75;1.10;;;;;;;19.72;39.16;100052.69;1729590;81;25834;-59
2021/05/23 15:37:55;;;;;;;3.12;1.47;;;;;;;19.54;39.12;100051.11;1736286;81;27309;-60
2021/05/23 15:40:22;;;;;;;33.15;12.93;;;;;;;19.37;39.58;100047.02;1724365;81;25648;-59
2021/05/23 15:42:50;;;;;;;5.30;2.37;;;;;;;19.30;40.16;100057.31;1731885;81;25697;-59
2021/05/23 15:45:17;;;;;;;2.25;1.25;;;;;;;19.25;40.33;100053.53;1729642;81;26061;-58
2021/05/23 15:47:45;;;;;;;4.22;2.50;;;;;;;19.18;40.62;100054.23;1707139;82;25679;-58
2021/05/23 15:50:13;;;;;;;3.35;1.07;;;;;;;19.06;40.70;100057.81;1664753;83;29039;-57
2021/05/23 15:52:40;;;;;;;1.25;0.98;;;;;;;18.92;40.96;100059.78;1671025;84;25886;-57
2021/05/23 15:55:08;;;;;;;3.22;1.30;;;;;;;18.85;41.21;100052.27;1670040;84;25951;-58
2021/05/23 15:57:34;;;;;;;1.22;1.00;;;;;;;18.77;41.58;100052.70;1664294;83;25825;-58
2021/05/23 16:00:01;;;;;;;1.52;1.00;;;;;;;18.72;41.73;100059.09;1678697;82;25858;-58
2021/05/23 16:02:27;;;;;;;4.12;1.35;;;;;;;18.65;41.83;100057.03;1688767;83;27320;-58
2021/05/23 16:04:54;;;;;;;3.42;1.80;;;;;;;18.68;42.33;100060.41;1706947;82;25882;-58
2021/05/23 16:07:21;;;;;;;1.30;1.10;;;;;;;18.68;41.90;100067.26;1686757;84;25734;-58
2021/05/23 16:09:47;;;;;;;0.80;0.80;;;;;;;18.60;41.61;100077.30;1680165;82;25833;-58
2021/05/23 16:12:15;;;;;;;0.82;0.70;;;;;;;18.41;41.98;100075.45;1656475;83;27061;-57
2021/05/23 16:14:42;;;;;;;1.92;1.10;;;;;;;18.23;42.17;100080.63;1682495;83;28271;-59
2021/05/23 16:17:08;;;;;;;0.80;0.70;;;;;;;18.04;42.54;100071.13;1674939;84;25811;-56
2021/05/23 16:19:35;;;;;;;1.90;0.80;;;;;;;17.86;42.93;100081.19;1667066;84;25830;-58
2021/05/23 16:22:02;;;;;;;4.47;1.40;;;;;;;17.65;43.20;100079.39;1671227;83;25940;-58
2021/05/23 16:24:28;;;;;;;1.22;0.78;;;;;;;17.52;43.70;100078.73;1668653;84;25886;-58
2021/05/23 16:26:55;;;;;;;2.55;0.70;;;;;;;17.36;44.08;100080.20;1687274;84;27371;-58
2021/05/23 16:29:21;;;;;;;1.90;1.25;;;;;;;17.20;44.29;100083.56;1695082;82;26351;-58
2021/05/23 16:31:48;;;;;;;1.45;1.00;;;;;;;17.11;44.91;100090.05;1685808;82;25981;-59
2021/05/23 16:34:14;;;;;;;2.87;1.10;;;;;;;17.02;44.97;100099.02;1670662;83;26901;-57
2021/05/23 16:36:42;;;;;;;3.60;1.75;;;;;;;16.95;45.21;100103.73;1674674;82;26148;-58
2021/05/23 16:39:08;;;;;;;3.65;1.42;;;;;;;16.84;45.22;100098.63;1701504;82;27358;-58
2021/05/23 16:41:56;;;;;;;5.08;2.45;;;;;;;16.69;45.76;100109.77;1715657;81;25777;-58
2021/05/23 16:44:25;;;;;;;1.10;1.00;;;;;;;16.59;46.02;100107.58;1710949;81;25760;-58
2021/05/23 16:46:51;;;;;;;4.25;1.60;;;;;;;16.50;46.67;100111.86;1737602;81;26574;-58
2021/05/23 16:49:17;;;;;;;4.33;1.60;;;;;;;16.38;46.31;100121.52;1739382;81;26521;-58
2021/05/23 16:51:44;;;;;;;3.47;1.47;;;;;;;16.32;46.76;100117.45;1736287;81;27258;-57
2021/05/23 16:54:10;;;;;;;9.25;4.28;;;;;;;16.30;46.84;100134.75;1725166;81;25837;-58
2021/05/23 16:56:37;;;;;;;3.85;1.57;;;;;;;16.23;46.95;100161.28;1744116;81;25656;-57
2021/05/23 16:59:04;;;;;;;2.35;2.10;;;;;;;16.18;47.10;100159.60;1717517;81;25850;-58
2021/05/23 17:01:33;;;;;;;2.62;1.20;;;;;;;16.12;47.66;100169.17;1718897;81;25745;-57
2021/05/23 17:03:59;;;;;;;4.00;1.25;;;;;;;16.05;48.50;100167.05;1725601;81;27547;-58
2021/05/23 17:06:25;;;;;;;2.45;1.92;;;;;;;15.96;50.42;100176.55;1730495;81;25908;-56
2021/05/23 17:08:54;;;;;;;3.75;2.45;;;;;;;15.81;51.20;100178.08;1737626;81;25930;-58
2021/05/23 17:11:21;;;;;;;4.17;3.27;;;;;;;15.66;52.49;100164.58;1726032;81;25740;-59
2021/05/23 17:13:47;;;;;;;8.93;2.58;;;;;;;15.57;52.84;100163.94;1731734;81;25921;-59
2021/05/23 17:16:14;;;;;;;3.67;1.85;;;;;;;15.52;53.52;100166.91;1729902;81;28070;-59
2021/05/23 17:18:41;;;;;;;1.10;1.00;;;;;;;15.47;54.35;100172.02;1702765;83;25705;-59
2021/05/23 17:21:07;;;;;;;1.35;0.93;;;;;;;15.39;55.27;100168.86;1663127;84;26453;-58
2021/05/23 17:23:34;;;;;;;4.05;1.00;;;;;;;15.31;55.41;100168.66;1671228;84;26093;-59
2021/05/23 17:26:00;;;;;;;3.02;1.95;;;;;;;15.25;56.33;100161.84;1676911;84;27243;-59
2021/05/23 17:28:27;;;;;;;2.65;1.15;;;;;;;15.23;56.84;100163.33;1676766;84;28798;-59
2021/05/23 17:30:54;;;;;;;5.17;1.60;;;;;;;15.18;57.67;100167.66;1691402;83;27143;-59
2021/05/23 17:33:20;;;;;;;3.17;1.25;;;;;;;15.12;58.10;100167.11;1701364;82;26059;-58
2021/05/23 17:35:48;;;;;;;2.42;1.70;;;;;;;15.08;59.37;100162.88;1701294;82;25835;-58
2021/05/23 17:38:15;;;;;;;4.78;2.67;;;;;;;15.02;59.99;100164.84;1700016;82;26557;-59
2021/05/23 17:40:42;;;;;;;4.58;2.70;;;;;;;14.99;59.96;100158.14;1733675;81;28325;-59